createdAt,value
2017-04-05T00:00:14.093Z,13.91
2017-04-05T00:00:54.606Z,14.07
2017-04-05T00:01:35.129Z,14.17
2017-04-05T00:02:15.681Z,14.18
2017-04-05T00:02:56.166Z,14.17
2017-04-05T00:03:36.718Z,14.22
2017-04-05T00:04:17.185Z,14.15
2017-04-05T00:04:57.668Z,14.06
2017-04-05T00:05:38.163Z,14.06
2017-04-05T00:06:18.676Z,13.99
2017-04-05T00:06:59.179Z,14.02
2017-04-05T00:07:39.674Z,14.04
2017-04-05T00:08:20.195Z,14.04
2017-04-05T00:09:00.710Z,14
2017-04-05T00:09:41.232Z,13.97
2017-04-05T00:10:21.734Z,13.89
2017-04-05T00:11:02.233Z,13.95
2017-04-05T00:11:42.761Z,13.96
2017-04-05T00:12:23.280Z,14.06
2017-04-05T00:13:03.806Z,14.06
2017-04-05T00:13:44.322Z,13.91
2017-04-05T00:14:24.856Z,13.88
2017-04-05T00:15:05.365Z,13.81
2017-04-05T00:15:45.885Z,13.88
2017-04-05T00:16:26.400Z,13.78
2017-04-05T00:17:06.922Z,13.66
2017-04-05T00:17:47.468Z,13.69
2017-04-05T00:18:27.980Z,13.69
2017-04-05T00:19:08.494Z,13.7
2017-04-05T00:19:49.001Z,13.67
2017-04-05T00:20:29.521Z,13.78
2017-04-05T00:21:10.040Z,13.66
2017-04-05T00:21:50.559Z,13.78
2017-04-05T00:22:31.072Z,13.7
2017-04-05T00:23:11.579Z,13.77
2017-04-05T00:23:52.096Z,13.78
2017-04-05T00:24:32.619Z,13.84
2017-04-05T00:25:13.092Z,13.91
2017-04-05T00:25:53.605Z,13.89
2017-04-05T00:26:34.117Z,13.89
2017-04-05T00:27:14.653Z,13.95
2017-04-05T00:27:55.174Z,13.97
2017-04-05T00:28:35.698Z,13.96
2017-04-05T00:29:16.206Z,13.96
2017-04-05T00:29:56.703Z,14
2017-04-05T00:30:37.223Z,13.99
2017-04-05T00:31:17.809Z,14.15
2017-04-05T00:31:58.251Z,14.09
2017-04-05T00:32:38.758Z,14.14
2017-04-05T00:33:19.267Z,14.03
2017-04-05T00:33:59.730Z,14.15
2017-04-05T00:34:40.204Z,14.03
2017-04-05T00:35:20.711Z,13.96
2017-04-05T00:36:01.203Z,13.97
2017-04-05T00:36:41.720Z,13.89
2017-04-05T00:37:22.234Z,13.85
2017-04-05T00:38:02.719Z,13.78
2017-04-05T00:38:43.236Z,13.85
2017-04-05T00:39:23.750Z,13.85
2017-04-05T00:40:04.265Z,13.95
2017-04-05T00:40:44.762Z,13.79
2017-04-05T00:41:25.295Z,13.82
2017-04-05T00:42:05.759Z,13.64
2017-04-05T00:42:46.303Z,13.79
2017-04-05T00:43:26.794Z,13.81
2017-04-05T00:44:07.308Z,13.91
2017-04-05T00:44:47.828Z,13.81
2017-04-05T00:45:28.350Z,13.84
2017-04-05T00:46:08.853Z,13.84
2017-04-05T00:46:49.363Z,13.6
2017-04-05T00:47:29.865Z,13.62
2017-04-05T00:48:10.357Z,13.57
2017-04-05T00:48:50.877Z,13.64
2017-04-05T00:49:31.389Z,13.59
2017-04-05T00:50:11.907Z,13.64
2017-04-05T00:50:52.434Z,13.67
2017-04-05T00:51:32.951Z,13.59
2017-04-05T00:52:13.463Z,13.48
2017-04-05T00:52:54.017Z,13.41
2017-04-05T00:53:34.566Z,13.39
2017-04-05T00:54:15.069Z,13.3
2017-04-05T00:54:55.593Z,13.38
2017-04-05T00:55:36.087Z,13.33
2017-04-05T00:56:16.626Z,13.51
2017-04-05T00:56:57.085Z,13.55
2017-04-05T00:57:37.562Z,13.57
2017-04-05T00:58:18.103Z,13.62
2017-04-05T00:58:58.569Z,13.62
2017-04-05T00:59:39.151Z,13.62
2017-04-05T01:00:19.688Z,13.55
2017-04-05T01:01:00.206Z,13.46
2017-04-05T01:01:40.728Z,13.32
2017-04-05T01:02:21.244Z,13.17
2017-04-05T01:03:01.749Z,13.1
2017-04-05T01:03:42.271Z,13.32
2017-04-05T01:04:22.792Z,13.36
2017-04-05T01:05:03.287Z,13.26
2017-04-05T01:05:43.770Z,13.39
2017-04-05T01:06:24.287Z,13.25
2017-04-05T01:07:04.802Z,13.3
2017-04-05T01:07:45.319Z,13.32
2017-04-05T01:08:25.839Z,13.44
2017-04-05T01:09:06.367Z,13.33
2017-04-05T01:09:46.878Z,13.39
2017-04-05T01:10:27.400Z,13.39
2017-04-05T01:11:07.914Z,13.39
2017-04-05T01:11:48.427Z,13.39
2017-04-05T01:12:28.952Z,13.39
2017-04-05T01:13:09.491Z,13.46
2017-04-05T01:13:49.975Z,13.55
2017-04-05T01:14:30.489Z,13.49
2017-04-05T01:15:10.974Z,13.52
2017-04-05T01:15:51.477Z,13.33
2017-04-05T01:16:31.994Z,13.22
2017-04-05T01:17:12.511Z,13.17
2017-04-05T01:17:52.986Z,13.23
2017-04-05T01:18:33.514Z,13.14
2017-04-05T01:19:14.005Z,13.04
2017-04-05T01:19:54.482Z,12.97
2017-04-05T01:20:34.990Z,12.93
2017-04-05T01:21:15.505Z,12.87
2017-04-05T01:21:55.988Z,12.83
2017-04-05T01:22:36.514Z,12.78
2017-04-05T01:23:17.020Z,12.95
2017-04-05T01:23:57.535Z,12.93
2017-04-05T01:24:38.044Z,12.96
2017-04-05T01:25:18.563Z,12.93
2017-04-05T01:25:59.086Z,12.92
2017-04-05T01:26:39.606Z,12.85
2017-04-05T01:27:20.132Z,13.01
2017-04-05T01:28:00.655Z,13.08
2017-04-05T01:28:41.185Z,13.01
2017-04-05T01:29:21.699Z,12.97
2017-04-05T01:30:02.223Z,12.95
2017-04-05T01:30:42.747Z,12.95
2017-04-05T01:31:23.263Z,12.87
2017-04-05T01:32:03.785Z,12.77
2017-04-05T01:32:44.307Z,12.93
2017-04-05T01:33:24.816Z,12.95
2017-04-05T01:34:05.325Z,12.83
2017-04-05T01:34:45.837Z,12.96
2017-04-05T01:35:26.356Z,13.01
2017-04-05T01:36:06.867Z,12.93
2017-04-05T01:36:47.391Z,12.96
2017-04-05T01:37:27.910Z,13
2017-04-05T01:38:08.421Z,13.05
2017-04-05T01:38:48.935Z,12.97
2017-04-05T01:39:29.454Z,12.83
2017-04-05T01:40:09.975Z,12.82
2017-04-05T01:40:50.505Z,12.85
2017-04-05T01:41:31.008Z,12.86
2017-04-05T01:42:11.537Z,12.97
2017-04-05T01:42:52.074Z,12.87
2017-04-05T01:43:32.592Z,12.87
2017-04-05T01:44:13.114Z,13.04
2017-04-05T01:44:53.628Z,12.97
2017-04-05T01:45:34.151Z,12.82
2017-04-05T01:46:14.658Z,12.85
2017-04-05T01:46:55.184Z,12.7
2017-04-05T01:47:35.705Z,12.78
2017-04-05T01:48:16.285Z,12.72
2017-04-05T01:48:56.814Z,12.86
2017-04-05T01:49:37.312Z,12.78
2017-04-05T01:50:17.833Z,12.74
2017-04-05T01:50:58.335Z,12.7
2017-04-05T01:51:39.114Z,12.7
2017-04-05T01:52:19.634Z,12.71
2017-04-05T01:53:00.156Z,12.71
2017-04-05T01:53:40.681Z,12.68
2017-04-05T01:54:21.229Z,12.7
2017-04-05T01:55:01.741Z,12.53
2017-04-05T01:55:42.255Z,12.64
2017-04-05T01:56:22.773Z,12.53
2017-04-05T01:57:03.294Z,12.62
2017-04-05T01:57:43.816Z,12.65
2017-04-05T01:58:24.339Z,12.64
2017-04-05T01:59:04.848Z,12.62
2017-04-05T01:59:45.383Z,12.56
2017-04-05T02:00:25.901Z,12.56
2017-04-05T02:01:06.415Z,12.47
2017-04-05T02:01:46.963Z,12.5
2017-04-05T02:02:27.471Z,12.47
2017-04-05T02:03:07.984Z,12.53
2017-04-05T02:03:48.522Z,12.68
2017-04-05T02:04:29.034Z,12.6
2017-04-05T02:05:09.562Z,12.65
2017-04-05T02:05:50.082Z,12.7
2017-04-05T02:06:30.608Z,12.62
2017-04-05T02:07:11.126Z,12.67
2017-04-05T02:07:51.690Z,12.74
2017-04-05T02:08:32.223Z,12.67
2017-04-05T02:09:12.739Z,12.65
2017-04-05T02:09:53.245Z,12.65
2017-04-05T02:10:33.764Z,12.53
2017-04-05T02:11:14.302Z,12.57
2017-04-05T02:11:54.843Z,12.53
2017-04-05T02:12:35.364Z,12.62
2017-04-05T02:13:15.888Z,12.49
2017-04-05T02:13:56.414Z,12.64
2017-04-05T02:14:36.918Z,12.54
2017-04-05T02:15:17.440Z,12.65
2017-04-05T02:15:57.957Z,12.35
2017-04-05T02:16:38.481Z,12.39
2017-04-05T02:17:19.004Z,12.35
2017-04-05T02:17:59.517Z,12.39
2017-04-05T02:18:40.036Z,12.35
2017-04-05T02:19:20.548Z,12.29
2017-04-05T02:20:01.064Z,12.17
2017-04-05T02:20:41.580Z,12.07
2017-04-05T02:21:22.091Z,12.28
2017-04-05T02:22:02.597Z,12.21
2017-04-05T02:22:43.095Z,12.32
2017-04-05T02:23:23.602Z,12.31
2017-04-05T02:24:04.076Z,12.38
2017-04-05T02:24:44.554Z,12.35
2017-04-05T02:25:25.059Z,12.47
2017-04-05T02:26:05.543Z,12.47
2017-04-05T02:26:46.016Z,12.5
2017-04-05T02:27:26.534Z,12.29
2017-04-05T02:28:06.996Z,12.27
2017-04-05T02:28:47.511Z,12.27
2017-04-05T02:29:28.036Z,12.28
2017-04-05T02:30:08.521Z,12.07
2017-04-05T02:30:49.039Z,11.99
2017-04-05T02:31:29.563Z,12.09
2017-04-05T02:32:10.073Z,12.12
2017-04-05T02:32:50.602Z,12.16
2017-04-05T02:33:31.088Z,12.35
2017-04-05T02:34:11.573Z,12.41
2017-04-05T02:34:52.087Z,12.34
2017-04-05T02:35:32.577Z,12.34
2017-04-05T02:36:13.078Z,12.56
2017-04-05T02:36:53.601Z,12.34
2017-04-05T02:37:34.110Z,12.38
2017-04-05T02:38:14.625Z,12.37
2017-04-05T02:38:55.121Z,12.12
2017-04-05T02:39:35.657Z,12.13
2017-04-05T02:40:16.141Z,12.28
2017-04-05T02:40:56.634Z,12.37
2017-04-05T02:41:37.119Z,12.35
2017-04-05T02:42:17.625Z,12.1
2017-04-05T02:42:58.149Z,12.32
2017-04-05T02:43:38.635Z,12.39
2017-04-05T02:44:19.219Z,12.31
2017-04-05T02:44:59.712Z,12.27
2017-04-05T02:45:40.237Z,12.31
2017-04-05T02:46:20.744Z,12.24
2017-04-05T02:47:01.260Z,12.41
2017-04-05T02:47:41.728Z,12.42
2017-04-05T02:48:22.227Z,12.28
2017-04-05T02:49:02.741Z,12.13
2017-04-05T02:49:43.261Z,12.35
2017-04-05T02:50:23.756Z,12.27
2017-04-05T02:51:04.273Z,12.27
2017-04-05T02:53:02.525Z,12.12
2017-04-05T02:53:43.044Z,12.09
2017-04-05T02:54:23.566Z,12.14
2017-04-05T02:55:04.091Z,12.14
2017-04-05T02:55:44.613Z,12.28
2017-04-05T02:56:25.123Z,12.16
2017-04-05T02:57:05.622Z,12.09
2017-04-05T02:57:46.143Z,12.17
2017-04-05T02:58:26.659Z,12.28
2017-04-05T02:59:07.177Z,12.09
2017-04-05T02:59:47.691Z,12.24
2017-04-05T03:00:28.211Z,12.35
2017-04-05T03:01:08.718Z,12.23
2017-04-05T03:01:49.544Z,12.2
2017-04-05T03:02:30.056Z,12.07
2017-04-05T03:03:10.567Z,12.02
2017-04-05T03:03:51.089Z,11.95
2017-04-05T03:04:31.595Z,12.12
2017-04-05T03:05:12.117Z,12.23
2017-04-05T03:05:52.627Z,12.13
2017-04-05T03:06:33.159Z,12.21
2017-04-05T03:07:13.663Z,12.27
2017-04-05T03:09:11.852Z,12.05
2017-04-05T03:09:52.377Z,11.83
2017-04-05T03:10:32.892Z,11.75
2017-04-05T03:11:13.412Z,11.85
2017-04-05T03:11:53.942Z,11.99
2017-04-05T03:12:34.449Z,11.9
2017-04-05T03:13:14.966Z,11.78
2017-04-05T03:13:55.471Z,11.82
2017-04-05T03:14:35.981Z,12.01
2017-04-05T03:15:16.491Z,11.88
2017-04-05T03:15:57.012Z,11.98
2017-04-05T03:16:37.521Z,12.13
2017-04-05T03:17:18.033Z,12.04
2017-04-05T03:17:58.549Z,12.07
2017-04-05T03:18:39.054Z,11.99
2017-04-05T03:19:19.564Z,11.94
2017-04-05T03:20:00.083Z,11.83
2017-04-05T03:20:40.599Z,11.83
2017-04-05T03:21:21.112Z,11.86
2017-04-05T03:22:01.626Z,11.79
2017-04-05T03:22:42.143Z,11.65
2017-04-05T03:23:22.630Z,11.73
2017-04-05T03:24:03.152Z,11.72
2017-04-05T03:24:43.643Z,11.57
2017-04-05T03:25:24.119Z,11.83
2017-04-05T03:26:04.687Z,11.98
2017-04-05T03:26:45.113Z,11.98
2017-04-05T03:27:25.629Z,11.86
2017-04-05T03:28:06.140Z,11.85
2017-04-05T03:28:46.639Z,11.9
2017-04-05T03:29:27.163Z,11.83
2017-04-05T03:30:07.608Z,11.96
2017-04-05T03:30:48.122Z,11.85
2017-04-05T03:31:28.639Z,11.76
2017-04-05T03:32:09.104Z,11.7
2017-04-05T03:32:49.610Z,11.64
2017-04-05T03:33:30.119Z,11.78
2017-04-05T03:34:10.677Z,11.75
2017-04-05T03:34:51.191Z,11.79
2017-04-05T03:35:31.720Z,11.79
2017-04-05T03:36:12.247Z,11.75
2017-04-05T03:36:52.762Z,11.62
2017-04-05T03:37:33.285Z,11.65
2017-04-05T03:38:13.795Z,11.69
2017-04-05T03:38:54.318Z,11.51
2017-04-05T03:39:34.836Z,11.61
2017-04-05T03:40:15.380Z,11.75
2017-04-05T03:40:55.908Z,11.69
2017-04-05T03:41:36.427Z,11.73
2017-04-05T03:42:16.948Z,11.78
2017-04-05T03:42:57.462Z,11.79
2017-04-05T03:43:37.984Z,11.83
2017-04-05T03:44:18.508Z,11.82
2017-04-05T03:44:59.021Z,11.85
2017-04-05T03:45:39.534Z,11.67
2017-04-05T03:46:20.069Z,11.72
2017-04-05T03:47:00.589Z,11.69
2017-04-05T03:47:41.120Z,11.78
2017-04-05T03:48:21.639Z,11.75
2017-04-05T03:49:02.147Z,11.78
2017-04-05T03:49:42.673Z,11.6
2017-04-05T03:50:23.191Z,11.69
2017-04-05T03:51:03.716Z,11.64
2017-04-05T03:51:44.848Z,11.72
2017-04-05T03:52:25.372Z,11.78
2017-04-05T03:53:05.875Z,11.78
2017-04-05T03:53:46.395Z,11.69
2017-04-05T03:54:26.907Z,11.7
2017-04-05T03:55:07.424Z,11.76
2017-04-05T03:55:47.951Z,11.85
2017-04-05T03:56:28.465Z,11.95
2017-04-05T03:57:08.977Z,11.8
2017-04-05T03:57:49.501Z,11.8
2017-04-05T03:58:30.003Z,11.73
2017-04-05T03:59:10.521Z,11.83
2017-04-05T03:59:51.051Z,12.01
2017-04-05T04:00:31.607Z,11.91
2017-04-05T04:01:12.136Z,11.73
2017-04-05T04:01:52.654Z,11.58
2017-04-05T04:02:33.173Z,11.62
2017-04-05T04:03:13.696Z,11.75
2017-04-05T04:03:54.226Z,11.75
2017-04-05T04:04:34.748Z,11.78
2017-04-05T04:05:15.265Z,11.88
2017-04-05T04:05:55.817Z,11.86
2017-04-05T04:06:36.312Z,11.86
2017-04-05T04:07:16.853Z,11.86
2017-04-05T04:07:57.366Z,11.96
2017-04-05T04:08:37.879Z,11.98
2017-04-05T04:09:18.401Z,12.02
2017-04-05T04:09:58.938Z,12.09
2017-04-05T04:10:39.450Z,12.1
2017-04-05T04:11:19.980Z,12.12
2017-04-05T04:12:00.497Z,12.04
2017-04-05T04:12:42.225Z,12.12
2017-04-05T04:13:22.754Z,12.12
2017-04-05T04:14:03.273Z,12.02
2017-04-05T04:14:43.776Z,12.04
2017-04-05T04:15:24.310Z,12.02
2017-04-05T04:16:04.829Z,11.98
2017-04-05T04:16:45.310Z,11.96
2017-04-05T04:17:25.838Z,11.78
2017-04-05T04:18:06.336Z,11.78
2017-04-05T04:18:46.832Z,11.85
2017-04-05T04:19:27.335Z,11.78
2017-04-05T04:20:07.840Z,11.85
2017-04-05T04:20:48.366Z,11.76
2017-04-05T04:21:28.886Z,11.46
2017-04-05T04:22:09.391Z,11.46
2017-04-05T04:22:49.901Z,11.44
2017-04-05T04:23:30.374Z,11.36
2017-04-05T04:24:10.896Z,11.28
2017-04-05T04:24:51.401Z,11.28
2017-04-05T04:25:31.925Z,11.49
2017-04-05T04:26:12.467Z,11.51
2017-04-05T04:26:52.976Z,11.33
2017-04-05T04:27:33.503Z,11.44
2017-04-05T04:28:14.000Z,11.44
2017-04-05T04:28:54.494Z,11.36
2017-04-05T04:29:35.025Z,11.37
2017-04-05T04:30:15.522Z,11.44
2017-04-05T04:30:56.054Z,11.39
2017-04-05T04:31:36.540Z,11.37
2017-04-05T04:32:17.021Z,11.54
2017-04-05T04:32:57.521Z,11.42
2017-04-05T04:33:38.057Z,11.49
2017-04-05T04:34:18.497Z,11.52
2017-04-05T04:34:58.975Z,11.57
2017-04-05T04:35:39.487Z,11.44
2017-04-05T04:36:19.993Z,11.42
2017-04-05T04:37:00.512Z,11.35
2017-04-05T04:37:41.027Z,11.25
2017-04-05T04:38:21.554Z,11.02
2017-04-05T04:39:02.062Z,11.07
2017-04-05T04:39:42.577Z,11.1
2017-04-05T04:40:23.077Z,11.03
2017-04-05T04:41:03.592Z,11.02
2017-04-05T04:41:44.295Z,11.19
2017-04-05T04:42:24.788Z,11.15
2017-04-05T04:43:05.279Z,11.09
2017-04-05T04:43:45.817Z,11.19
2017-04-05T04:44:26.272Z,11.21
2017-04-05T04:45:06.774Z,11.04
2017-04-05T04:45:47.310Z,11.17
2017-04-05T04:46:27.807Z,11.1
2017-04-05T04:47:08.321Z,10.94
2017-04-05T04:47:48.823Z,10.82
2017-04-05T04:48:29.358Z,10.86
2017-04-05T04:49:09.870Z,10.96
2017-04-05T04:49:50.375Z,10.76
2017-04-05T04:50:30.903Z,10.76
2017-04-05T04:51:11.413Z,10.66
2017-04-05T04:51:51.936Z,10.78
2017-04-05T04:52:32.451Z,10.79
2017-04-05T04:53:12.971Z,11.04
2017-04-05T04:53:53.499Z,11.06
2017-04-05T04:54:34.068Z,11.1
2017-04-05T04:55:14.624Z,11.11
2017-04-05T04:55:55.122Z,11.06
2017-04-05T04:56:35.657Z,11.09
2017-04-05T04:57:16.172Z,11.14
2017-04-05T04:57:56.688Z,11.14
2017-04-05T04:58:37.199Z,10.97
2017-04-05T04:59:17.717Z,10.96
2017-04-05T04:59:58.238Z,11.1
2017-04-05T05:00:38.750Z,11.21
2017-04-05T05:01:19.297Z,11.19
2017-04-05T05:01:59.827Z,11.29
2017-04-05T05:02:40.321Z,11.19
2017-04-05T05:03:20.872Z,11.15
2017-04-05T05:04:01.342Z,11.11
2017-04-05T05:04:41.846Z,11.17
2017-04-05T05:05:22.354Z,11.25
2017-04-05T05:06:02.853Z,11.21
2017-04-05T05:06:43.355Z,11.22
2017-04-05T05:07:23.971Z,11.29
2017-04-05T05:08:04.405Z,11.15
2017-04-05T05:08:44.877Z,11.35
2017-04-05T05:09:25.389Z,11.4
2017-04-05T05:10:05.898Z,11.42
2017-04-05T05:10:46.386Z,11.39
2017-04-05T05:11:26.883Z,11.33
2017-04-05T05:12:07.398Z,11.21
2017-04-05T05:12:47.906Z,11.04
2017-04-05T05:13:28.463Z,11.1
2017-04-05T05:14:08.985Z,11.22
2017-04-05T05:14:49.512Z,11.19
2017-04-05T05:15:30.186Z,11.19
2017-04-05T05:16:10.675Z,11.17
2017-04-05T05:16:51.166Z,11.11
2017-04-05T05:17:31.878Z,11.09
2017-04-05T05:18:12.351Z,11.27
2017-04-05T05:18:52.853Z,11.42
2017-04-05T05:19:33.363Z,11.54
2017-04-05T05:20:13.878Z,11.62
2017-04-05T05:20:54.378Z,11.62
2017-04-05T05:21:34.926Z,11.78
2017-04-05T05:22:15.403Z,12.04
2017-04-05T05:22:55.911Z,12.12
2017-04-05T05:23:36.420Z,12.31
2017-04-05T05:24:16.934Z,12.34
2017-04-05T05:24:57.445Z,12.41
2017-04-05T05:25:37.939Z,12.49
2017-04-05T05:26:18.454Z,12.57
2017-04-05T05:26:58.967Z,12.6
2017-04-05T05:27:39.461Z,12.53
2017-04-05T05:28:20.024Z,12.59
2017-04-05T05:29:00.528Z,12.56
2017-04-05T05:29:40.991Z,12.59
2017-04-05T05:30:21.538Z,12.59
2017-04-05T05:31:02.037Z,12.64
2017-04-05T05:31:42.511Z,12.64
2017-04-05T05:32:23.019Z,12.75
2017-04-05T05:33:03.530Z,12.79
2017-04-05T05:33:44.007Z,12.86
2017-04-05T05:35:37.111Z,13.04
2017-04-05T05:36:17.609Z,13.2
2017-04-05T05:36:58.124Z,13.17
2017-04-05T05:37:38.663Z,13.25
2017-04-05T05:38:19.426Z,13.26
2017-04-05T05:38:59.769Z,13.23
2017-04-05T05:40:52.869Z,13.52
2017-04-05T05:41:33.388Z,13.55
2017-04-05T05:42:13.853Z,13.64
2017-04-05T05:42:54.350Z,13.6
2017-04-05T05:43:34.841Z,13.57
2017-04-05T05:44:15.375Z,13.59
2017-04-05T05:44:55.881Z,13.67
2017-04-05T05:45:36.405Z,13.38
2017-04-05T05:46:16.881Z,13.36
2017-04-05T05:46:57.336Z,13.38
2017-04-05T05:47:37.952Z,13.46
2017-04-05T05:48:18.315Z,13.19
2017-04-05T05:48:58.824Z,12.95
2017-04-05T05:49:39.321Z,12.97
2017-04-05T05:50:19.794Z,13
2017-04-05T05:51:00.320Z,13.08
2017-04-05T05:51:40.881Z,13.12
2017-04-05T05:52:21.649Z,13
2017-04-05T05:53:02.023Z,13.01
2017-04-05T05:53:42.510Z,13.15
2017-04-05T05:54:22.990Z,13.3
2017-04-05T05:55:03.491Z,13.32
2017-04-05T05:55:43.946Z,13.36
2017-04-05T05:56:24.461Z,13.32
2017-04-05T05:57:04.935Z,13.42
2017-04-05T05:57:45.431Z,13.08
2017-04-05T05:58:25.974Z,13.08
2017-04-05T05:59:06.545Z,13.17
2017-04-05T05:59:47.141Z,13.25
2017-04-05T06:00:27.619Z,13.26
2017-04-05T06:01:08.130Z,13.28
2017-04-05T06:01:48.638Z,13.1
2017-04-05T06:02:29.116Z,13.14
2017-04-05T06:03:09.609Z,13.28
2017-04-05T06:03:50.083Z,13.46
2017-04-05T06:04:30.582Z,13.59
2017-04-05T06:05:11.138Z,13.62
2017-04-05T06:05:51.573Z,13.6
2017-04-05T06:06:32.063Z,13.81
2017-04-05T06:07:12.630Z,13.82
2017-04-05T06:07:53.060Z,13.77
2017-04-05T06:08:33.532Z,13.87
2017-04-05T06:09:14.016Z,13.82
2017-04-05T06:09:54.473Z,13.91
2017-04-05T06:10:35.013Z,13.88
2017-04-05T06:11:15.467Z,13.99
2017-04-05T06:11:57.172Z,13.84
2017-04-05T06:12:37.607Z,13.91
2017-04-05T06:13:18.096Z,13.66
2017-04-05T06:13:58.582Z,13.82
2017-04-05T06:14:39.173Z,14.17
2017-04-05T06:15:19.603Z,13.95
2017-04-05T06:16:00.819Z,13.85
2017-04-05T06:16:41.348Z,14.03
2017-04-05T06:17:21.868Z,14.28
2017-04-05T06:18:02.478Z,14.21
2017-04-05T06:18:42.965Z,14.27
2017-04-05T06:19:23.457Z,14.25
2017-04-05T06:20:03.913Z,14.29
2017-04-05T06:20:44.401Z,14.36
2017-04-05T06:21:24.909Z,14.42
2017-04-05T06:22:05.417Z,14.35
2017-04-05T06:22:45.919Z,14.45
2017-04-05T06:23:26.452Z,14.52
2017-04-05T06:24:06.925Z,14.52
2017-04-05T06:24:47.448Z,14.43
2017-04-05T06:25:27.961Z,14.68
2017-04-05T06:26:08.447Z,14.69
2017-04-05T06:26:48.903Z,14.94
2017-04-05T06:27:29.393Z,14.78
2017-04-05T06:28:09.875Z,14.52
2017-04-05T06:28:50.399Z,14.69
2017-04-05T06:29:30.932Z,14.61
2017-04-05T06:30:11.429Z,14.45
2017-04-05T06:30:51.978Z,14.36
2017-04-05T06:31:32.412Z,14.24
2017-04-05T06:32:12.918Z,14.29
2017-04-05T06:32:53.396Z,13.99
2017-04-05T06:33:33.934Z,14.02
2017-04-05T06:34:14.589Z,13.75
2017-04-05T06:34:55.133Z,13.6
2017-04-05T06:35:35.625Z,13.42
2017-04-05T06:36:16.137Z,13.57
2017-04-05T06:36:56.614Z,13.59
2017-04-05T06:37:37.114Z,13.87
2017-04-05T06:38:17.609Z,14.02
2017-04-05T06:38:58.088Z,14.15
2017-04-05T06:39:39.092Z,14.03
2017-04-05T06:40:22.643Z,14.15
2017-04-05T06:41:03.399Z,14.35
2017-04-05T06:41:43.851Z,14.51
2017-04-05T06:42:24.880Z,14.61
2017-04-05T06:43:05.298Z,14.52
2017-04-05T06:43:45.797Z,14.54
2017-04-05T06:44:26.297Z,14.52
2017-04-05T06:45:06.790Z,14.5
2017-04-05T06:45:47.332Z,14.4
2017-04-05T06:46:27.788Z,14.42
2017-04-05T06:47:08.270Z,14.17
2017-04-05T06:47:48.804Z,14.07
2017-04-05T06:48:29.299Z,14.06
2017-04-05T06:49:09.798Z,14.06
2017-04-05T06:49:50.351Z,14.24
2017-04-05T06:50:30.799Z,14.28
2017-04-05T06:51:11.251Z,14.36
2017-04-05T06:51:51.738Z,14.35
2017-04-05T06:52:32.381Z,14.47
2017-04-05T06:53:12.788Z,14.36
2017-04-05T06:53:53.253Z,14.29
2017-04-05T06:54:33.745Z,14.32
2017-04-05T06:55:14.256Z,14.32
2017-04-05T06:55:54.812Z,14.24
2017-04-05T06:56:35.306Z,14.15
2017-04-05T06:57:15.811Z,13.97
2017-04-05T06:57:56.307Z,14.17
2017-04-05T06:58:36.796Z,14.2
2017-04-05T06:59:17.343Z,14.51
2017-04-05T06:59:57.839Z,14.6
2017-04-05T07:00:38.399Z,14.64
2017-04-05T07:01:19.034Z,14.77
2017-04-05T07:01:59.529Z,14.83
2017-04-05T07:02:39.970Z,14.75
2017-04-05T07:03:20.419Z,14.91
2017-04-05T07:04:00.938Z,15.13
2017-04-05T07:04:41.450Z,15.28
2017-04-05T07:05:21.960Z,15.31
2017-04-05T07:06:02.417Z,15.07
2017-04-05T07:06:42.974Z,15.01
2017-04-05T07:07:23.561Z,15.07
2017-04-05T07:08:03.998Z,15.19
2017-04-05T07:08:44.649Z,15.07
2017-04-05T07:09:24.993Z,15.13
2017-04-05T07:10:05.481Z,15.21
2017-04-05T07:10:46.013Z,15.36
2017-04-05T07:11:26.578Z,15.53
2017-04-05T07:12:07.024Z,15.67
2017-04-05T07:12:47.493Z,15.78
2017-04-05T07:13:27.987Z,15.62
2017-04-05T07:14:08.585Z,15.69
2017-04-05T07:14:49.167Z,15.74
2017-04-05T07:15:29.737Z,15.82
2017-04-05T07:16:10.278Z,15.78
2017-04-05T07:16:50.733Z,15.75
2017-04-05T07:17:31.272Z,15.87
2017-04-05T07:18:11.726Z,15.82
2017-04-05T07:18:52.268Z,15.89
2017-04-05T07:19:32.867Z,15.78
2017-04-05T07:20:13.335Z,15.83
2017-04-05T07:20:53.866Z,15.76
2017-04-05T07:21:34.374Z,15.71
2017-04-05T07:22:14.879Z,15.8
2017-04-05T07:22:55.411Z,15.59
2017-04-05T07:23:35.861Z,15.57
2017-04-05T07:24:16.375Z,15.6
2017-04-05T07:24:56.833Z,15.47
2017-04-05T07:25:37.406Z,15.62
2017-04-05T07:26:17.923Z,15.75
2017-04-05T07:26:58.475Z,15.72
2017-04-05T07:27:38.930Z,15.83
2017-04-05T07:28:19.510Z,16.02
2017-04-05T07:29:00.008Z,15.78
2017-04-05T07:29:40.523Z,15.84
2017-04-05T07:30:21.034Z,15.71
2017-04-05T07:31:01.540Z,15.75
2017-04-05T07:31:42.026Z,15.86
2017-04-05T07:32:22.487Z,15.82
2017-04-05T07:33:03.009Z,15.87
2017-04-05T07:33:43.470Z,15.74
2017-04-05T07:34:23.951Z,15.65
2017-04-05T07:35:04.436Z,15.62
2017-04-05T07:35:45.070Z,15.78
2017-04-05T07:36:25.858Z,15.84
2017-04-05T07:37:06.382Z,15.8
2017-04-05T07:37:46.848Z,15.78
2017-04-05T07:38:27.431Z,15.84
2017-04-05T07:39:07.953Z,15.84
2017-04-05T07:39:48.424Z,15.96
2017-04-05T07:40:28.903Z,15.84
2017-04-05T07:41:09.420Z,15.68
2017-04-05T07:41:49.944Z,15.68
2017-04-05T07:43:43.208Z,15.76
2017-04-05T07:44:23.670Z,15.97
2017-04-05T07:45:04.213Z,16.07
2017-04-05T07:45:44.708Z,15.97
2017-04-05T07:46:25.431Z,16.08
2017-04-05T07:47:05.945Z,16.25
2017-04-05T07:47:46.351Z,16.28
2017-04-05T07:48:26.921Z,16.24
2017-04-05T07:49:07.316Z,16.35
2017-04-05T07:49:47.786Z,16.42
2017-04-05T07:50:28.274Z,16.39
2017-04-05T07:51:08.742Z,16.45
2017-04-05T07:51:49.251Z,16.49
2017-04-05T07:52:29.749Z,16.49
2017-04-05T07:53:10.315Z,16.39
2017-04-05T07:53:51.930Z,16.45
2017-04-05T07:54:32.202Z,16.45
2017-04-05T07:55:12.731Z,16.21
2017-04-05T07:55:53.247Z,16.23
2017-04-05T07:56:33.716Z,16.07
2017-04-05T07:57:14.192Z,16.15
2017-04-05T07:57:54.751Z,16.25
2017-04-05T07:58:35.330Z,16.43
2017-04-05T07:59:15.874Z,16.58
2017-04-05T07:59:56.340Z,16.71
2017-04-05T08:00:36.849Z,16.85
2017-04-05T08:01:17.375Z,16.94
2017-04-05T08:01:57.821Z,17
2017-04-05T08:02:38.294Z,16.93
2017-04-05T08:03:18.811Z,16.97
2017-04-05T08:03:59.327Z,16.88
2017-04-05T08:04:39.840Z,16.85
2017-04-05T08:05:20.318Z,16.94
2017-04-05T08:06:00.793Z,16.86
2017-04-05T08:06:41.397Z,16.39
2017-04-05T08:07:21.871Z,16.39
2017-04-05T08:08:02.324Z,16.58
2017-04-05T08:08:42.887Z,16.57
2017-04-05T08:09:23.343Z,16.58
2017-04-05T08:10:03.808Z,16.56
2017-04-05T08:10:44.317Z,16.53
2017-04-05T08:11:24.877Z,16.48
2017-04-05T08:12:05.340Z,16.53
2017-04-05T08:12:45.839Z,16.5
2017-04-05T08:13:26.414Z,16.53
2017-04-05T08:14:06.936Z,16.6
2017-04-05T08:14:47.393Z,16.58
2017-04-05T08:15:27.933Z,16.53
2017-04-05T08:16:08.374Z,16.5
2017-04-05T08:16:48.857Z,16.48
2017-04-05T08:17:29.387Z,16.38
2017-04-05T08:18:09.847Z,16.24
2017-04-05T08:18:50.320Z,16.11
2017-04-05T08:19:30.904Z,16.27
2017-04-05T08:20:11.373Z,16.12
2017-04-05T08:21:59.580Z,16.24
2017-04-05T08:22:40.025Z,16.27
2017-04-05T08:23:20.584Z,16.17
2017-04-05T08:24:01.076Z,16.17
2017-04-05T08:24:41.710Z,16.07
2017-04-05T08:25:22.115Z,16.14
2017-04-05T08:26:02.701Z,16.11
2017-04-05T08:26:43.227Z,16.21
2017-04-05T08:27:23.664Z,16.3
2017-04-05T08:28:04.146Z,16.3
2017-04-05T08:28:44.840Z,16.45
2017-04-05T08:29:25.261Z,16.31
2017-04-05T08:30:05.813Z,16.42
2017-04-05T08:30:46.199Z,16.25
2017-04-05T08:31:26.826Z,16.14
2017-04-05T08:32:07.420Z,16.02
2017-04-05T08:32:47.984Z,16.04
2017-04-05T08:33:28.486Z,15.97
2017-04-05T08:34:08.937Z,16.02
2017-04-05T08:34:49.441Z,16.01
2017-04-05T08:35:30.007Z,16.08
2017-04-05T08:36:10.470Z,16.11
2017-04-05T08:36:51.098Z,16.17
2017-04-05T08:37:31.584Z,16.2
2017-04-05T08:38:12.061Z,16.11
2017-04-05T08:38:52.575Z,16.08
2017-04-05T08:39:33.092Z,16.2
2017-04-05T08:40:13.572Z,16.52
2017-04-05T08:40:54.127Z,16.57
2017-04-05T08:41:34.564Z,16.41
2017-04-05T08:42:15.089Z,16.5
2017-04-05T08:42:55.592Z,16.56
2017-04-05T08:43:36.124Z,16.56
2017-04-05T08:44:16.590Z,16.63
2017-04-05T08:44:57.043Z,16.83
2017-04-05T08:45:37.630Z,16.64
2017-04-05T08:46:18.162Z,16.79
2017-04-05T08:46:58.701Z,16.73
2017-04-05T08:47:39.190Z,16.66
2017-04-05T08:48:19.642Z,16.64
2017-04-05T08:49:00.121Z,16.56
2017-04-05T08:49:40.647Z,16.67
2017-04-05T08:50:21.103Z,16.7